sensor_id;sensor_type;location;lat;lon;timestamp;temperature;humidity
6556;DHT22;3311;48.32423000;14.29074500;2023-04-21T00:01:05;14.50;64.60
6556;DHT22;3311;48.32423000;14.29074500;2023-04-21T00:03:33;14.50;65.00
6556;DHT22;3311;48.32423000;14.29074500;2023-04-21T00:06:03;14.40;65.10
6556;DHT22;3311;48.32423000;14.29074500;2023-04-21T00:08:33;14.30;65.20
6556;DHT22;3311;48.32423000;14.29074500;2023-04-21T00:11:05;14.40;65.40
6556;DHT22;3311;48.32423000;14.29074500;2023-04-21T00:13:32;14.40;65.00
6556;DHT22;3311;48.32423000;14.29074500;2023-04-21T00:16:00;14.50;65.30
6556;DHT22;3311;48.32423000;14.29074500;2023-04-21T00:18:28;14.40;65.10
6556;DHT22;3311;48.32423000;14.29074500;2023-04-21T00:20:55;14.30;65.30
6556;DHT22;3311;48.32423000;14.29074500;2023-04-21T00:23:23;14.20;65.70
6556;DHT22;3311;48.32423000;14.29074500;2023-04-21T00:25:51;14.20;65.80
6556;DHT22;3311;48.32423000;14.29074500;2023-04-21T00:28:19;14.20;65.80
6556;DHT22;3311;48.32423000;14.29074500;2023-04-21T00:30:46;14.10;65.80
6556;DHT22;3311;48.32423000;14.29074500;2023-04-21T00:33:13;14.10;65.90
6556;DHT22;3311;48.32423000;14.29074500;2023-04-21T00:35:40;14.00;65.80
6556;DHT22;3311;48.32423000;14.29074500;2023-04-21T00:38:08;14.10;65.90
6556;DHT22;3311;48.32423000;14.29074500;2023-04-21T00:40:35;14.10;65.70
6556;DHT22;3311;48.32423000;14.29074500;2023-04-21T00:43:06;14.10;65.80
6556;DHT22;3311;48.32423000;14.29074500;2023-04-21T00:45:34;14.10;65.70
6556;DHT22;3311;48.32423000;14.29074500;2023-04-21T00:48:01;14.20;65.70
6556;DHT22;3311;48.32423000;14.29074500;2023-04-21T00:50:28;14.10;65.80
6556;DHT22;3311;48.32423000;14.29074500;2023-04-21T00:52:56;14.00;65.80
6556;DHT22;3311;48.32423000;14.29074500;2023-04-21T00:55:23;14.10;65.90
6556;DHT22;3311;48.32423000;14.29074500;2023-04-21T00:57:51;14.10;65.80
6556;DHT22;3311;48.32423000;14.29074500;2023-04-21T01:00:21;14.10;66.00
6556;DHT22;3311;48.32423000;14.29074500;2023-04-21T01:02:48;14.10;65.80
6556;DHT22;3311;48.32423000;14.29074500;2023-04-21T01:05:15;14.00;66.60
6556;DHT22;3311;48.32423000;14.29074500;2023-04-21T01:07:43;14.00;65.70
6556;DHT22;3311;48.32423000;14.29074500;2023-04-21T01:10:11;14.00;66.20
6556;DHT22;3311;48.32423000;14.29074500;2023-04-21T01:12:42;14.00;66.00
6556;DHT22;3311;48.32423000;14.29074500;2023-04-21T01:15:11;14.00;65.90
6556;DHT22;3311;48.32423000;14.29074500;2023-04-21T01:17:40;15.00;66.90
6556;DHT22;3311;48.32423000;14.29074500;2023-04-21T01:20:10;14.00;65.70
6556;DHT22;3311;48.32423000;14.29074500;2023-04-21T01:22:40;14.00;65.80
6556;DHT22;3311;48.32423000;14.29074500;2023-04-21T01:25:09;13.90;65.90
6556;DHT22;3311;48.32423000;14.29074500;2023-04-21T01:27:36;13.90;66.40
6556;DHT22;3311;48.32423000;14.29074500;2023-04-21T01:30:05;13.90;66.20
6556;DHT22;3311;48.32423000;14.29074500;2023-04-21T01:32:33;13.90;66.30
6556;DHT22;3311;48.32423000;14.29074500;2023-04-21T01:35:00;14.00;65.90
6556;DHT22;3311;48.32423000;14.29074500;2023-04-21T01:37:31;14.00;65.90
6556;DHT22;3311;48.32423000;14.29074500;2023-04-21T01:40:01;14.00;65.90
6556;DHT22;3311;48.32423000;14.29074500;2023-04-21T01:42:31;14.00;65.50
6556;DHT22;3311;48.32423000;14.29074500;2023-04-21T01:44:59;14.10;65.30
6556;DHT22;3311;48.32423000;14.29074500;2023-04-21T01:47:27;14.00;65.40
6556;DHT22;3311;48.32423000;14.29074500;2023-04-21T01:49:54;14.00;65.40
6556;DHT22;3311;48.32423000;14.29074500;2023-04-21T01:52:21;13.90;65.40
6556;DHT22;3311;48.32423000;14.29074500;2023-04-21T01:54:50;13.90;65.20
6556;DHT22;3311;48.32423000;14.29074500;2023-04-21T01:57:18;13.90;65.40
6556;DHT22;3311;48.32423000;14.29074500;2023-04-21T01:59:46;13.90;65.50
6556;DHT22;3311;48.32423000;14.29074500;2023-04-21T02:02:14;13.80;65.50
6556;DHT22;3311;48.32423000;14.29074500;2023-04-21T02:04:41;13.80;65.30
6556;DHT22;3311;48.32423000;14.29074500;2023-04-21T02:07:09;13.90;65.20
6556;DHT22;3311;48.32423000;14.29074500;2023-04-21T02:09:36;13.80;65.50
6556;DHT22;3311;48.32423000;14.29074500;2023-04-21T02:12:04;13.80;65.30
6556;DHT22;3311;48.32423000;14.29074500;2023-04-21T02:14:32;13.90;65.10
6556;DHT22;3311;48.32423000;14.29074500;2023-04-21T02:17:00;13.80;65.10
6556;DHT22;3311;48.32423000;14.29074500;2023-04-21T02:19:28;13.70;65.10
6556;DHT22;3311;48.32423000;14.29074500;2023-04-21T02:21:56;13.70;65.30
6556;DHT22;3311;48.32423000;14.29074500;2023-04-21T02:24:23;13.70;65.30
6556;DHT22;3311;48.32423000;14.29074500;2023-04-21T02:26:50;13.70;65.70
6556;DHT22;3311;48.32423000;14.29074500;2023-04-21T02:29:17;13.70;65.00
6556;DHT22;3311;48.32423000;14.29074500;2023-04-21T02:31:46;13.70;64.90
6556;DHT22;3311;48.32423000;14.29074500;2023-04-21T02:34:13;13.70;64.90
6556;DHT22;3311;48.32423000;14.29074500;2023-04-21T02:36:40;13.70;65.20
6556;DHT22;3311;48.32423000;14.29074500;2023-04-21T02:39:08;13.60;65.00
6556;DHT22;3311;48.32423000;14.29074500;2023-04-21T02:41:35;13.60;65.00
6556;DHT22;3311;48.32423000;14.29074500;2023-04-21T02:44:03;13.60;64.80
6556;DHT22;3311;48.32423000;14.29074500;2023-04-21T02:46:30;13.60;64.80
6556;DHT22;3311;48.32423000;14.29074500;2023-04-21T02:48:59;13.60;65.00
6556;DHT22;3311;48.32423000;14.29074500;2023-04-21T02:51:26;13.70;65.10
6556;DHT22;3311;48.32423000;14.29074500;2023-04-21T02:53:53;13.70;65.10
6556;DHT22;3311;48.32423000;14.29074500;2023-04-21T02:56:20;13.70;65.30
6556;DHT22;3311;48.32423000;14.29074500;2023-04-21T02:58:47;13.60;64.70
6556;DHT22;3311;48.32423000;14.29074500;2023-04-21T03:01:15;13.60;64.60
6556;DHT22;3311;48.32423000;14.29074500;2023-04-21T03:03:42;13.50;64.80
6556;DHT22;3311;48.32423000;14.29074500;2023-04-21T03:06:11;13.50;65.00
6556;DHT22;3311;48.32423000;14.29074500;2023-04-21T03:08:38;13.50;64.90
6556;DHT22;3311;48.32423000;14.29074500;2023-04-21T03:11:06;13.50;65.00
6556;DHT22;3311;48.32423000;14.29074500;2023-04-21T03:13:33;13.50;64.90
6556;DHT22;3311;48.32423000;14.29074500;2023-04-21T03:16:01;13.50;64.70
6556;DHT22;3311;48.32423000;14.29074500;2023-04-21T03:18:28;13.50;64.70
6556;DHT22;3311;48.32423000;14.29074500;2023-04-21T03:20:59;13.50;64.90
6556;DHT22;3311;48.32423000;14.29074500;2023-04-21T03:23:28;13.50;64.90
6556;DHT22;3311;48.32423000;14.29074500;2023-04-21T03:25:55;13.50;64.70
6556;DHT22;3311;48.32423000;14.29074500;2023-04-21T03:28:22;13.40;64.60
6556;DHT22;3311;48.32423000;14.29074500;2023-04-21T03:30:49;13.40;64.70
6556;DHT22;3311;48.32423000;14.29074500;2023-04-21T03:33:17;13.40;64.70
6556;DHT22;3311;48.32423000;14.29074500;2023-04-21T03:35:44;13.40;64.80
6556;DHT22;3311;48.32423000;14.29074500;2023-04-21T03:38:11;13.40;64.70
6556;DHT22;3311;48.32423000;14.29074500;2023-04-21T03:40:39;13.40;64.40
6556;DHT22;3311;48.32423000;14.29074500;2023-04-21T03:43:07;13.40;64.60
6556;DHT22;3311;48.32423000;14.29074500;2023-04-21T03:45:34;13.40;64.60
6556;DHT22;3311;48.32423000;14.29074500;2023-04-21T03:48:01;13.50;64.80
6556;DHT22;3311;48.32423000;14.29074500;2023-04-21T03:50:29;13.40;64.70
6556;DHT22;3311;48.32423000;14.29074500;2023-04-21T03:52:56;13.40;64.60
6556;DHT22;3311;48.32423000;14.29074500;2023-04-21T03:55:24;13.40;64.60
6556;DHT22;3311;48.32423000;14.29074500;2023-04-21T03:57:52;13.40;64.90
6556;DHT22;3311;48.32423000;14.29074500;2023-04-21T04:00:20;13.40;64.50
6556;DHT22;3311;48.32423000;14.29074500;2023-04-21T04:02:47;13.50;64.50
6556;DHT22;3311;48.32423000;14.29074500;2023-04-21T04:05:14;13.50;64.20
6556;DHT22;3311;48.32423000;14.29074500;2023-04-21T04:07:41;13.40;64.10
6556;DHT22;3311;48.32423000;14.29074500;2023-04-21T04:10:09;13.40;64.20
6556;DHT22;3311;48.32423000;14.29074500;2023-04-21T04:12:36;13.40;64.20
6556;DHT22;3311;48.32423000;14.29074500;2023-04-21T04:15:06;13.40;64.20
6556;DHT22;3311;48.32423000;14.29074500;2023-04-21T04:17:34;13.40;64.30
6556;DHT22;3311;48.32423000;14.29074500;2023-04-21T04:20:01;13.50;64.40
6556;DHT22;3311;48.32423000;14.29074500;2023-04-21T04:22:31;13.50;64.20
6556;DHT22;3311;48.32423000;14.29074500;2023-04-21T04:24:58;13.50;64.20
6556;DHT22;3311;48.32423000;14.29074500;2023-04-21T04:27:26;13.60;64.20
6556;DHT22;3311;48.32423000;14.29074500;2023-04-21T04:29:54;13.50;63.90
6556;DHT22;3311;48.32423000;14.29074500;2023-04-21T04:32:23;13.50;64.30
6556;DHT22;3311;48.32423000;14.29074500;2023-04-21T04:34:53;13.60;64.30
6556;DHT22;3311;48.32423000;14.29074500;2023-04-21T04:37:21;13.70;64.30
6556;DHT22;3311;48.32423000;14.29074500;2023-04-21T04:39:52;13.90;63.70
6556;DHT22;3311;48.32423000;14.29074500;2023-04-21T04:42:19;14.10;63.20
6556;DHT22;3311;48.32423000;14.29074500;2023-04-21T04:44:46;14.30;63.00
6556;DHT22;3311;48.32423000;14.29074500;2023-04-21T04:47:13;14.50;62.40
6556;DHT22;3311;48.32423000;14.29074500;2023-04-21T04:49:42;14.60;62.20
6556;DHT22;3311;48.32423000;14.29074500;2023-04-21T04:52:09;14.60;62.40
6556;DHT22;3311;48.32423000;14.29074500;2023-04-21T04:54:37;14.70;62.30
6556;DHT22;3311;48.32423000;14.29074500;2023-04-21T04:57:04;14.80;61.80
6556;DHT22;3311;48.32423000;14.29074500;2023-04-21T04:59:31;15.00;61.50
6556;DHT22;3311;48.32423000;14.29074500;2023-04-21T05:01:58;15.10;61.30
6556;DHT22;3311;48.32423000;14.29074500;2023-04-21T05:04:26;15.20;61.10
6556;DHT22;3311;48.32423000;14.29074500;2023-04-21T05:06:54;15.30;61.00
6556;DHT22;3311;48.32423000;14.29074500;2023-04-21T05:09:21;15.40;60.40
6556;DHT22;3311;48.32423000;14.29074500;2023-04-21T05:11:49;15.50;60.50
6556;DHT22;3311;48.32423000;14.29074500;2023-04-21T05:14:16;15.60;60.30
6556;DHT22;3311;48.32423000;14.29074500;2023-04-21T05:16:44;15.70;60.30
6556;DHT22;3311;48.32423000;14.29074500;2023-04-21T05:19:11;15.70;59.80
6556;DHT22;3311;48.32423000;14.29074500;2023-04-21T05:21:38;15.80;59.80
6556;DHT22;3311;48.32423000;14.29074500;2023-04-21T05:24:07;15.90;59.70
6556;DHT22;3311;48.32423000;14.29074500;2023-04-21T05:26:34;15.90;59.50
6556;DHT22;3311;48.32423000;14.29074500;2023-04-21T05:29:01;16.00;59.50
6556;DHT22;3311;48.32423000;14.29074500;2023-04-21T05:31:29;16.00;59.50
6556;DHT22;3311;48.32423000;14.29074500;2023-04-21T05:33:56;16.00;59.50
6556;DHT22;3311;48.32423000;14.29074500;2023-04-21T05:36:23;16.10;59.30
6556;DHT22;3311;48.32423000;14.29074500;2023-04-21T05:38:50;16.10;59.50
6556;DHT22;3311;48.32423000;14.29074500;2023-04-21T05:41:20;16.10;59.40
6556;DHT22;3311;48.32423000;14.29074500;2023-04-21T05:43:47;16.30;60.00
6556;DHT22;3311;48.32423000;14.29074500;2023-04-21T05:46:15;16.40;60.20
6556;DHT22;3311;48.32423000;14.29074500;2023-04-21T05:48:42;16.40;59.80
6556;DHT22;3311;48.32423000;14.29074500;2023-04-21T05:51:10;16.40;59.80
6556;DHT22;3311;48.32423000;14.29074500;2023-04-21T05:53:37;16.40;59.00
6556;DHT22;3311;48.32423000;14.29074500;2023-04-21T05:56:07;16.40;59.20
6556;DHT22;3311;48.32423000;14.29074500;2023-04-21T05:58:35;16.40;59.00
6556;DHT22;3311;48.32423000;14.29074500;2023-04-21T06:01:03;16.40;58.50
6556;DHT22;3311;48.32423000;14.29074500;2023-04-21T06:03:32;16.40;58.00
6556;DHT22;3311;48.32423000;14.29074500;2023-04-21T06:06:01;16.40;57.90
6556;DHT22;3311;48.32423000;14.29074500;2023-04-21T06:08:28;16.40;57.50
6556;DHT22;3311;48.32423000;14.29074500;2023-04-21T06:10:55;16.40;57.50
6556;DHT22;3311;48.32423000;14.29074500;2023-04-21T06:13:23;16.40;57.20
6556;DHT22;3311;48.32423000;14.29074500;2023-04-21T06:15:53;16.30;56.90
6556;DHT22;3311;48.32423000;14.29074500;2023-04-21T06:18:22;16.30;56.80
6556;DHT22;3311;48.32423000;14.29074500;2023-04-21T06:20:51;16.30;56.80
6556;DHT22;3311;48.32423000;14.29074500;2023-04-21T06:23:19;16.40;56.90
6556;DHT22;3311;48.32423000;14.29074500;2023-04-21T06:25:46;16.40;56.90
6556;DHT22;3311;48.32423000;14.29074500;2023-04-21T06:28:13;16.40;56.90
6556;DHT22;3311;48.32423000;14.29074500;2023-04-21T06:30:41;16.50;57.00
6556;DHT22;3311;48.32423000;14.29074500;2023-04-21T06:33:11;16.60;57.10
6556;DHT22;3311;48.32423000;14.29074500;2023-04-21T06:35:38;16.70;57.10
6556;DHT22;3311;48.32423000;14.29074500;2023-04-21T06:38:07;16.70;57.00
6556;DHT22;3311;48.32423000;14.29074500;2023-04-21T06:40:35;16.70;57.60
6556;DHT22;3311;48.32423000;14.29074500;2023-04-21T06:43:02;16.80;57.20
6556;DHT22;3311;48.32423000;14.29074500;2023-04-21T06:45:29;16.80;57.00
6556;DHT22;3311;48.32423000;14.29074500;2023-04-21T06:47:56;16.80;57.20
6556;DHT22;3311;48.32423000;14.29074500;2023-04-21T06:50:25;16.90;57.20
6556;DHT22;3311;48.32423000;14.29074500;2023-04-21T06:52:52;16.90;57.30
6556;DHT22;3311;48.32423000;14.29074500;2023-04-21T06:55:19;17.00;57.40
6556;DHT22;3311;48.32423000;14.29074500;2023-04-21T06:57:46;17.00;57.20
6556;DHT22;3311;48.32423000;14.29074500;2023-04-21T07:00:15;17.10;57.20
6556;DHT22;3311;48.32423000;14.29074500;2023-04-21T07:02:42;17.10;57.30
6556;DHT22;3311;48.32423000;14.29074500;2023-04-21T07:05:10;17.20;57.40
6556;DHT22;3311;48.32423000;14.29074500;2023-04-21T07:07:39;17.20;57.30
6556;DHT22;3311;48.32423000;14.29074500;2023-04-21T07:10:07;17.20;57.10
6556;DHT22;3311;48.32423000;14.29074500;2023-04-21T07:12:34;17.20;57.20
6556;DHT22;3311;48.32423000;14.29074500;2023-04-21T07:15:01;17.30;57.40
6556;DHT22;3311;48.32423000;14.29074500;2023-04-21T07:17:28;17.30;57.30
6556;DHT22;3311;48.32423000;14.29074500;2023-04-21T07:19:55;17.30;57.30
6556;DHT22;3311;48.32423000;14.29074500;2023-04-21T07:22:23;17.30;57.00
6556;DHT22;3311;48.32423000;14.29074500;2023-04-21T07:24:51;17.30;57.00
6556;DHT22;3311;48.32423000;14.29074500;2023-04-21T07:27:18;17.30;56.90
6556;DHT22;3311;48.32423000;14.29074500;2023-04-21T07:29:46;17.30;56.90
6556;DHT22;3311;48.32423000;14.29074500;2023-04-21T07:32:13;17.30;56.80
6556;DHT22;3311;48.32423000;14.29074500;2023-04-21T07:34:40;17.30;56.70
6556;DHT22;3311;48.32423000;14.29074500;2023-04-21T07:37:08;17.40;56.70
6556;DHT22;3311;48.32423000;14.29074500;2023-04-21T07:39:35;17.40;56.80
6556;DHT22;3311;48.32423000;14.29074500;2023-04-21T07:42:04;17.40;56.80
6556;DHT22;3311;48.32423000;14.29074500;2023-04-21T07:44:32;17.40;56.60
6556;DHT22;3311;48.32423000;14.29074500;2023-04-21T07:47:00;17.40;56.50
6556;DHT22;3311;48.32423000;14.29074500;2023-04-21T07:49:27;17.40;56.50
6556;DHT22;3311;48.32423000;14.29074500;2023-04-21T07:51:54;17.40;56.60
6556;DHT22;3311;48.32423000;14.29074500;2023-04-21T07:54:21;17.50;56.60
6556;DHT22;3311;48.32423000;14.29074500;2023-04-21T07:56:48;17.50;56.50
6556;DHT22;3311;48.32423000;14.29074500;2023-04-21T07:59:17;17.50;56.60
6556;DHT22;3311;48.32423000;14.29074500;2023-04-21T08:01:44;17.60;56.70
6556;DHT22;3311;48.32423000;14.29074500;2023-04-21T08:04:11;17.60;56.50
6556;DHT22;3311;48.32423000;14.29074500;2023-04-21T08:06:38;17.60;57.40
6556;DHT22;3311;48.32423000;14.29074500;2023-04-21T08:09:06;17.60;59.50
6556;DHT22;3311;48.32423000;14.29074500;2023-04-21T08:11:33;17.50;62.70
6556;DHT22;3311;48.32423000;14.29074500;2023-04-21T08:14:01;17.50;65.20
6556;DHT22;3311;48.32423000;14.29074500;2023-04-21T08:16:30;17.50;65.50
6556;DHT22;3311;48.32423000;14.29074500;2023-04-21T08:18:57;17.40;67.40
6556;DHT22;3311;48.32423000;14.29074500;2023-04-21T08:21:25;17.40;67.80
6556;DHT22;3311;48.32423000;14.29074500;2023-04-21T08:23:53;17.40;68.70
6556;DHT22;3311;48.32423000;14.29074500;2023-04-21T08:26:21;17.30;68.20
6556;DHT22;3311;48.32423000;14.29074500;2023-04-21T08:28:50;17.30;67.90
6556;DHT22;3311;48.32423000;14.29074500;2023-04-21T08:31:18;17.30;68.10
6556;DHT22;3311;48.32423000;14.29074500;2023-04-21T08:33:46;17.30;69.00
6556;DHT22;3311;48.32423000;14.29074500;2023-04-21T08:36:14;17.30;69.10
6556;DHT22;3311;48.32423000;14.29074500;2023-04-21T08:38:42;17.30;70.90
6556;DHT22;3311;48.32423000;14.29074500;2023-04-21T08:41:10;17.30;70.60
6556;DHT22;3311;48.32423000;14.29074500;2023-04-21T08:43:37;17.30;69.70
6556;DHT22;3311;48.32423000;14.29074500;2023-04-21T08:46:06;17.30;70.60
6556;DHT22;3311;48.32423000;14.29074500;2023-04-21T08:48:35;17.30;70.80
6556;DHT22;3311;48.32423000;14.29074500;2023-04-21T08:51:06;17.30;69.20
6556;DHT22;3311;48.32423000;14.29074500;2023-04-21T08:53:36;17.30;69.90
6556;DHT22;3311;48.32423000;14.29074500;2023-04-21T08:56:03;17.30;69.00
6556;DHT22;3311;48.32423000;14.29074500;2023-04-21T08:58:31;17.30;71.10
6556;DHT22;3311;48.32423000;14.29074500;2023-04-21T09:00:58;17.30;70.30
6556;DHT22;3311;48.32423000;14.29074500;2023-04-21T09:03:26;17.30;70.10
6556;DHT22;3311;48.32423000;14.29074500;2023-04-21T09:05:57;17.30;70.70
6556;DHT22;3311;48.32423000;14.29074500;2023-04-21T09:08:27;17.20;71.30
6556;DHT22;3311;48.32423000;14.29074500;2023-04-21T09:10:56;17.20;71.00
6556;DHT22;3311;48.32423000;14.29074500;2023-04-21T09:13:29;17.20;70.70
6556;DHT22;3311;48.32423000;14.29074500;2023-04-21T09:15:57;17.20;71.70
6556;DHT22;3311;48.32423000;14.29074500;2023-04-21T09:18:26;17.30;71.20
6556;DHT22;3311;48.32423000;14.29074500;2023-04-21T09:21:05;17.20;69.60
6556;DHT22;3311;48.32423000;14.29074500;2023-04-21T09:23:41;17.20;70.90
6556;DHT22;3311;48.32423000;14.29074500;2023-04-21T09:26:09;17.20;70.90
6556;DHT22;3311;48.32423000;14.29074500;2023-04-21T09:28:40;17.20;70.60
6556;DHT22;3311;48.32423000;14.29074500;2023-04-21T09:31:12;17.20;71.30
6556;DHT22;3311;48.32423000;14.29074500;2023-04-21T09:33:44;17.20;71.10
6556;DHT22;3311;48.32423000;14.29074500;2023-04-21T09:36:17;17.20;71.00
6556;DHT22;3311;48.32423000;14.29074500;2023-04-21T09:38:54;17.10;71.40
6556;DHT22;3311;48.32423000;14.29074500;2023-04-21T09:41:23;17.20;71.20
6556;DHT22;3311;48.32423000;14.29074500;2023-04-21T09:43:51;17.20;70.40
6556;DHT22;3311;48.32423000;14.29074500;2023-04-21T09:46:19;17.10;71.20
6556;DHT22;3311;48.32423000;14.29074500;2023-04-21T09:48:47;17.10;72.10
6556;DHT22;3311;48.32423000;14.29074500;2023-04-21T09:51:15;17.10;71.90
6556;DHT22;3311;48.32423000;14.29074500;2023-04-21T09:53:44;17.10;72.00
6556;DHT22;3311;48.32423000;14.29074500;2023-04-21T09:56:13;17.10;71.40
6556;DHT22;3311;48.32423000;14.29074500;2023-04-21T09:58:46;17.10;72.20
6556;DHT22;3311;48.32423000;14.29074500;2023-04-21T10:01:15;17.10;71.70
6556;DHT22;3311;48.32423000;14.29074500;2023-04-21T10:03:43;17.10;71.30
6556;DHT22;3311;48.32423000;14.29074500;2023-04-21T10:06:11;17.10;71.10
6556;DHT22;3311;48.32423000;14.29074500;2023-04-21T10:08:40;17.10;72.20
6556;DHT22;3311;48.32423000;14.29074500;2023-04-21T10:11:08;17.00;71.70
6556;DHT22;3311;48.32423000;14.29074500;2023-04-21T10:13:38;17.00;71.60
6556;DHT22;3311;48.32423000;14.29074500;2023-04-21T10:16:08;17.10;72.10
6556;DHT22;3311;48.32423000;14.29074500;2023-04-21T10:18:36;17.00;71.40
6556;DHT22;3311;48.32423000;14.29074500;2023-04-21T10:21:06;17.00;71.20
6556;DHT22;3311;48.32423000;14.29074500;2023-04-21T10:23:38;17.00;72.40
6556;DHT22;3311;48.32423000;14.29074500;2023-04-21T10:26:11;17.00;70.00
6556;DHT22;3311;48.32423000;14.29074500;2023-04-21T10:28:46;17.00;71.30
6556;DHT22;3311;48.32423000;14.29074500;2023-04-21T10:31:21;17.00;71.40
6556;DHT22;3311;48.32423000;14.29074500;2023-04-21T10:34:16;17.00;70.70
6556;DHT22;3311;48.32423000;14.29074500;2023-04-21T10:39:32;17.00;71.80
6556;DHT22;3311;48.32423000;14.29074500;2023-04-21T10:45:11;17.00;70.50
6556;DHT22;3311;48.32423000;14.29074500;2023-04-21T10:47:49;17.00;70.10
6556;DHT22;3311;48.32423000;14.29074500;2023-04-21T10:50:21;17.00;72.20
6556;DHT22;3311;48.32423000;14.29074500;2023-04-21T10:52:58;16.90;70.20
6556;DHT22;3311;48.32423000;14.29074500;2023-04-21T10:55:32;17.00;70.70
6556;DHT22;3311;48.32423000;14.29074500;2023-04-21T10:58:01;16.90;71.30
6556;DHT22;3311;48.32423000;14.29074500;2023-04-21T11:00:30;16.90;71.30
6556;DHT22;3311;48.32423000;14.29074500;2023-04-21T11:03:00;16.90;72.10
6556;DHT22;3311;48.32423000;14.29074500;2023-04-21T11:05:29;16.90;71.70
6556;DHT22;3311;48.32423000;14.29074500;2023-04-21T11:08:07;16.90;70.90
6556;DHT22;3311;48.32423000;14.29074500;2023-04-21T11:10:52;16.90;70.20
6556;DHT22;3311;48.32423000;14.29074500;2023-04-21T11:13:21;16.90;70.30
6556;DHT22;3311;48.32423000;14.29074500;2023-04-21T11:15:58;16.90;71.30
6556;DHT22;3311;48.32423000;14.29074500;2023-04-21T11:18:46;16.90;70.80
6556;DHT22;3311;48.32423000;14.29074500;2023-04-21T11:21:15;16.90;70.40
6556;DHT22;3311;48.32423000;14.29074500;2023-04-21T11:23:49;16.90;70.70
6556;DHT22;3311;48.32423000;14.29074500;2023-04-21T11:26:17;16.90;71.30
6556;DHT22;3311;48.32423000;14.29074500;2023-04-21T11:28:47;16.90;70.80
6556;DHT22;3311;48.32423000;14.29074500;2023-04-21T11:31:16;16.90;71.20
6556;DHT22;3311;48.32423000;14.29074500;2023-04-21T11:33:44;16.90;69.50
6556;DHT22;3311;48.32423000;14.29074500;2023-04-21T11:36:11;16.90;70.80
6556;DHT22;3311;48.32423000;14.29074500;2023-04-21T11:38:39;16.80;70.10
6556;DHT22;3311;48.32423000;14.29074500;2023-04-21T11:41:07;16.90;70.60
6556;DHT22;3311;48.32423000;14.29074500;2023-04-21T11:43:35;16.90;70.10
6556;DHT22;3311;48.32423000;14.29074500;2023-04-21T11:46:17;16.90;70.00
6556;DHT22;3311;48.32423000;14.29074500;2023-04-21T11:48:44;16.90;69.60
6556;DHT22;3311;48.32423000;14.29074500;2023-04-21T11:51:15;16.80;70.00
6556;DHT22;3311;48.32423000;14.29074500;2023-04-21T11:53:46;16.80;69.30
6556;DHT22;3311;48.32423000;14.29074500;2023-04-21T11:56:17;16.80;70.10
6556;DHT22;3311;48.32423000;14.29074500;2023-04-21T11:58:46;16.80;69.20
6556;DHT22;3311;48.32423000;14.29074500;2023-04-21T12:01:16;16.80;69.50
6556;DHT22;3311;48.32423000;14.29074500;2023-04-21T12:03:50;16.80;69.10
6556;DHT22;3311;48.32423000;14.29074500;2023-04-21T12:06:22;16.80;69.70
6556;DHT22;3311;48.32423000;14.29074500;2023-04-21T12:08:54;16.80;68.50
6556;DHT22;3311;48.32423000;14.29074500;2023-04-21T12:11:23;16.80;69.60
6556;DHT22;3311;48.32423000;14.29074500;2023-04-21T12:13:50;16.80;69.10
6556;DHT22;3311;48.32423000;14.29074500;2023-04-21T12:16:19;16.80;68.80
6556;DHT22;3311;48.32423000;14.29074500;2023-04-21T12:18:47;16.80;68.70
6556;DHT22;3311;48.32423000;14.29074500;2023-04-21T12:21:15;16.80;68.80
6556;DHT22;3311;48.32423000;14.29074500;2023-04-21T12:23:42;16.80;68.50
6556;DHT22;3311;48.32423000;14.29074500;2023-04-21T12:26:11;16.80;67.70
6556;DHT22;3311;48.32423000;14.29074500;2023-04-21T12:28:38;16.90;68.00
6556;DHT22;3311;48.32423000;14.29074500;2023-04-21T12:31:05;16.80;68.00
6556;DHT22;3311;48.32423000;14.29074500;2023-04-21T12:33:34;16.80;67.50
6556;DHT22;3311;48.32423000;14.29074500;2023-04-21T12:36:01;16.80;67.90
6556;DHT22;3311;48.32423000;14.29074500;2023-04-21T12:38:28;16.80;67.60
6556;DHT22;3311;48.32423000;14.29074500;2023-04-21T12:40:55;16.80;67.10
6556;DHT22;3311;48.32423000;14.29074500;2023-04-21T12:43:23;16.80;67.20
6556;DHT22;3311;48.32423000;14.29074500;2023-04-21T12:45:50;16.80;67.90
6556;DHT22;3311;48.32423000;14.29074500;2023-04-21T12:48:17;16.80;68.70
6556;DHT22;3311;48.32423000;14.29074500;2023-04-21T12:50:46;16.80;68.10
6556;DHT22;3311;48.32423000;14.29074500;2023-04-21T12:53:14;16.90;67.70
6556;DHT22;3311;48.32423000;14.29074500;2023-04-21T12:55:41;16.80;67.90
6556;DHT22;3311;48.32423000;14.29074500;2023-04-21T12:58:08;16.90;68.30
6556;DHT22;3311;48.32423000;14.29074500;2023-04-21T13:00:37;16.90;67.00
6556;DHT22;3311;48.32423000;14.29074500;2023-04-21T13:03:06;16.90;67.80
6556;DHT22;3311;48.32423000;14.29074500;2023-04-21T13:05:33;16.90;67.40
6556;DHT22;3311;48.32423000;14.29074500;2023-04-21T13:08:01;16.90;66.90
6556;DHT22;3311;48.32423000;14.29074500;2023-04-21T13:10:29;16.90;68.00
6556;DHT22;3311;48.32423000;14.29074500;2023-04-21T13:12:56;16.90;66.50
6556;DHT22;3311;48.32423000;14.29074500;2023-04-21T13:15:23;16.90;66.20
6556;DHT22;3311;48.32423000;14.29074500;2023-04-21T13:17:50;16.90;66.80
6556;DHT22;3311;48.32423000;14.29074500;2023-04-21T13:20:17;16.90;66.70
6556;DHT22;3311;48.32423000;14.29074500;2023-04-21T13:22:45;16.90;65.90
6556;DHT22;3311;48.32423000;14.29074500;2023-04-21T13:25:13;16.90;66.80
6556;DHT22;3311;48.32423000;14.29074500;2023-04-21T13:27:41;16.90;66.40
6556;DHT22;3311;48.32423000;14.29074500;2023-04-21T13:30:10;16.90;66.70
6556;DHT22;3311;48.32423000;14.29074500;2023-04-21T13:32:38;16.90;66.60
6556;DHT22;3311;48.32423000;14.29074500;2023-04-21T13:35:06;16.90;63.80
6556;DHT22;3311;48.32423000;14.29074500;2023-04-21T13:37:36;16.90;65.00
6556;DHT22;3311;48.32423000;14.29074500;2023-04-21T13:40:06;16.90;65.20
6556;DHT22;3311;48.32423000;14.29074500;2023-04-21T13:42:37;16.90;64.70
6556;DHT22;3311;48.32423000;14.29074500;2023-04-21T13:45:06;16.90;64.90
6556;DHT22;3311;48.32423000;14.29074500;2023-04-21T13:47:34;16.90;65.50